sensor_id;sensor_type;location;lat;lon;timestamp;pressure;altitude;pressure_sealevel;temperature;humidity
55070;BME280;40967;52.070;8.596;2023-11-21T00:01:19;99960.69;;;7.26;100.00
55070;BME280;40967;52.070;8.596;2023-11-21T00:03:49;99952.03;;;7.24;100.00
55070;BME280;40967;52.070;8.596;2023-11-21T00:06:16;99968.28;;;7.34;100.00
55070;BME280;40967;52.070;8.596;2023-11-21T00:08:44;99970.72;;;7.35;100.00
55070;BME280;40967;52.070;8.596;2023-11-21T00:11:18;99975.63;;;7.38;100.00
55070;BME280;40967;52.070;8.596;2023-11-21T00:13:47;99968.84;;;7.36;100.00
55070;BME280;40967;52.070;8.596;2023-11-21T00:16:17;99966.13;;;7.36;100.00
55070;BME280;40967;52.070;8.596;2023-11-21T00:18:44;99971.00;;;7.39;100.00
55070;BME280;40967;52.070;8.596;2023-11-21T00:21:12;99978.06;;;7.40;100.00
55070;BME280;40967;52.070;8.596;2023-11-21T00:23:40;99977.53;;;7.43;100.00
55070;BME280;40967;52.070;8.596;2023-11-21T00:26:09;99975.38;;;7.45;100.00
55070;BME280;40967;52.070;8.596;2023-11-21T00:28:42;99981.06;;;7.48;100.00
55070;BME280;40967;52.070;8.596;2023-11-21T00:31:11;99984.31;;;7.50;100.00
55070;BME280;40967;52.070;8.596;2023-11-21T00:33:41;99979.44;;;7.52;100.00
55070;BME280;40967;52.070;8.596;2023-11-21T00:36:12;99986.75;;;7.52;100.00
55070;BME280;40967;52.070;8.596;2023-11-21T00:38:44;99998.38;;;7.57;100.00
55070;BME280;40967;52.070;8.596;2023-11-21T00:41:11;99995.97;;;7.61;100.00
55070;BME280;40967;52.070;8.596;2023-11-21T00:43:41;99988.41;;;7.63;100.00
55070;BME280;40967;52.070;8.596;2023-11-21T00:46:09;99996.56;;;7.68;100.00
55070;BME280;40967;52.070;8.596;2023-11-21T00:48:36;99982.53;;;7.71;100.00
55070;BME280;40967;52.070;8.596;2023-11-21T00:51:06;99990.91;;;7.74;100.00
55070;BME280;40967;52.070;8.596;2023-11-21T00:53:34;99985.78;;;7.78;100.00
55070;BME280;40967;52.070;8.596;2023-11-21T00:56:01;99984.16;;;7.77;100.00
55070;BME280;40967;52.070;8.596;2023-11-21T00:58:38;99987.41;;;7.79;100.00
55070;BME280;40967;52.070;8.596;2023-11-21T01:01:09;99975.50;;;7.75;100.00
55070;BME280;40967;52.070;8.596;2023-11-21T01:03:38;99987.94;;;7.81;100.00
55070;BME280;40967;52.070;8.596;2023-11-21T01:06:10;100002.28;;;7.81;100.00
55070;BME280;40967;52.070;8.596;2023-11-21T01:08:37;99994.72;;;7.83;100.00
55070;BME280;40967;52.070;8.596;2023-11-21T01:11:05;99997.94;;;7.85;100.00
55070;BME280;40967;52.070;8.596;2023-11-21T01:13:37;100006.59;;;7.87;100.00
55070;BME280;40967;52.070;8.596;2023-11-21T01:16:05;100009.03;;;7.89;100.00
55070;BME280;40967;52.070;8.596;2023-11-21T01:18:43;100007.16;;;7.89;100.00
55070;BME280;40967;52.070;8.596;2023-11-21T01:21:10;100006.09;;;7.90;100.00
55070;BME280;40967;52.070;8.596;2023-11-21T01:23:37;99998.00;;;7.90;100.00
55070;BME280;40967;52.070;8.596;2023-11-21T01:26:04;100011.25;;;7.92;100.00
55070;BME280;40967;52.070;8.596;2023-11-21T01:28:31;99999.88;;;7.90;100.00
55070;BME280;40967;52.070;8.596;2023-11-21T01:31:00;99998.78;;;7.91;100.00
55070;BME280;40967;52.070;8.596;2023-11-21T01:33:27;100007.72;;;7.91;100.00
55070;BME280;40967;52.070;8.596;2023-11-21T01:35:57;100008.81;;;7.90;100.00
55070;BME280;40967;52.070;8.596;2023-11-21T01:38:28;100017.69;;;7.91;100.00
55070;BME280;40967;52.070;8.596;2023-11-21T01:40:58;100017.69;;;7.91;100.00
55070;BME280;40967;52.070;8.596;2023-11-21T01:43:27;100019.34;;;7.92;100.00
55070;BME280;40967;52.070;8.596;2023-11-21T01:45:57;100004.72;;;7.88;100.00
55070;BME280;40967;52.070;8.596;2023-11-21T01:48:27;100016.09;;;7.90;100.00
55070;BME280;40967;52.070;8.596;2023-11-21T01:50:57;100010.69;;;7.90;100.00
55070;BME280;40967;52.070;8.596;2023-11-21T01:53:31;100014.44;;;7.89;100.00
55070;BME280;40967;52.070;8.596;2023-11-21T01:55:59;100004.19;;;7.91;100.00
55070;BME280;40967;52.070;8.596;2023-11-21T01:58:30;100003.13;;;7.92;100.00
55070;BME280;40967;52.070;8.596;2023-11-21T02:00:58;100003.41;;;7.90;100.00
55070;BME280;40967;52.070;8.596;2023-11-21T02:03:26;100001.50;;;7.91;100.00
55070;BME280;40967;52.070;8.596;2023-11-21T02:06:01;100009.31;;;7.92;100.00
55070;BME280;40967;52.070;8.596;2023-11-21T02:08:32;100003.91;;;7.92;100.00
55070;BME280;40967;52.070;8.596;2023-11-21T02:11:06;99996.91;;;7.91;100.00
55070;BME280;40967;52.070;8.596;2023-11-21T02:13:34;100012.59;;;7.99;100.00
55070;BME280;40967;52.070;8.596;2023-11-21T02:16:09;100010.72;;;8.00;100.00
55070;BME280;40967;52.070;8.596;2023-11-21T02:18:41;100027.22;;;8.03;100.00
55070;BME280;40967;52.070;8.596;2023-11-21T02:21:16;100027.47;;;8.02;100.00
55070;BME280;40967;52.070;8.596;2023-11-21T02:23:53;100029.91;;;8.03;100.00
55070;BME280;40967;52.070;8.596;2023-11-21T02:26:21;100043.16;;;8.05;100.00
55070;BME280;40967;52.070;8.596;2023-11-21T02:28:50;100049.94;;;8.07;100.00
55070;BME280;40967;52.070;8.596;2023-11-21T02:31:20;100056.94;;;8.03;100.00
55070;BME280;40967;52.070;8.596;2023-11-21T02:33:49;100056.09;;;7.98;100.00
55070;BME280;40967;52.070;8.596;2023-11-21T02:36:16;100059.34;;;8.00;100.00
55070;BME280;40967;52.070;8.596;2023-11-21T02:38:43;100059.34;;;8.00;100.00
55070;BME280;40967;52.070;8.596;2023-11-21T02:41:20;100057.19;;;8.02;100.00
55070;BME280;40967;52.070;8.596;2023-11-21T02:43:48;100061.00;;;8.06;100.00
55070;BME280;40967;52.070;8.596;2023-11-21T02:46:16;100058.03;;;8.07;100.00
55070;BME280;40967;52.070;8.596;2023-11-21T02:48:43;100055.06;;;8.09;100.00
55070;BME280;40967;52.070;8.596;2023-11-21T02:51:10;100058.31;;;8.11;100.00
55070;BME280;40967;52.070;8.596;2023-11-21T02:53:37;100061.56;;;8.13;100.00
55070;BME280;40967;52.070;8.596;2023-11-21T02:56:06;100060.47;;;8.14;100.00
55070;BME280;40967;52.070;8.596;2023-11-21T02:58:43;100054.81;;;8.16;100.00
55070;BME280;40967;52.070;8.596;2023-11-21T03:01:11;100056.69;;;8.15;100.00
55070;BME280;40967;52.070;8.596;2023-11-21T03:03:39;100049.13;;;8.17;100.00
55070;BME280;40967;52.070;8.596;2023-11-21T03:06:09;100058.06;;;8.18;100.00
55070;BME280;40967;52.070;8.596;2023-11-21T03:08:43;100060.50;;;8.19;100.00
55070;BME280;40967;52.070;8.596;2023-11-21T03:11:12;100056.41;;;8.17;100.00
55070;BME280;40967;52.070;8.596;2023-11-21T03:13:42;100055.63;;;8.11;100.00
55070;BME280;40967;52.070;8.596;2023-11-21T03:16:15;100052.34;;;8.09;100.00
55070;BME280;40967;52.070;8.596;2023-11-21T03:18:45;100060.47;;;8.09;100.00
55070;BME280;40967;52.070;8.596;2023-11-21T03:21:13;100061.53;;;8.08;100.00
55070;BME280;40967;52.070;8.596;2023-11-21T03:23:43;100069.09;;;8.06;100.00
55070;BME280;40967;52.070;8.596;2023-11-21T03:26:24;100070.72;;;8.07;100.00
55070;BME280;40967;52.070;8.596;2023-11-21T03:28:52;100069.91;;;8.06;100.00
55070;BME280;40967;52.070;8.596;2023-11-21T03:31:21;100074.53;;;8.11;100.00
55070;BME280;40967;52.070;8.596;2023-11-21T03:33:59;100086.16;;;8.17;100.00
55070;BME280;40967;52.070;8.596;2023-11-21T03:36:26;100086.16;;;8.17;100.00
55070;BME280;40967;52.070;8.596;2023-11-21T03:38:56;100082.91;;;8.10;100.00
55070;BME280;40967;52.070;8.596;2023-11-21T03:41:25;100085.84;;;8.08;100.00
55070;BME280;40967;52.070;8.596;2023-11-21T03:44:03;100080.97;;;8.05;100.00
55070;BME280;40967;52.070;8.596;2023-11-21T03:46:33;100086.94;;;8.07;100.00
55070;BME280;40967;52.070;8.596;2023-11-21T03:49:02;100090.16;;;8.04;100.00
55070;BME280;40967;52.070;8.596;2023-11-21T03:51:29;100102.31;;;8.06;100.00
55070;BME280;40967;52.070;8.596;2023-11-21T03:53:58;100096.66;;;8.08;100.00
55070;BME280;40967;52.070;8.596;2023-11-21T03:56:25;100093.44;;;8.11;100.00
55070;BME280;40967;52.070;8.596;2023-11-21T03:58:53;100086.66;;;8.08;100.00
55070;BME280;40967;52.070;8.596;2023-11-21T04:01:31;100096.69;;;8.13;100.00
55070;BME280;40967;52.070;8.596;2023-11-21T04:03:58;100095.06;;;8.12;100.00
55070;BME280;40967;52.070;8.596;2023-11-21T04:06:39;100101.00;;;8.14;100.00
55070;BME280;40967;52.070;8.596;2023-11-21T04:09:09;100104.81;;;8.18;100.00
55070;BME280;40967;52.070;8.596;2023-11-21T04:11:37;100104.00;;;8.18;100.00
55070;BME280;40967;52.070;8.596;2023-11-21T04:14:04;100117.25;;;8.19;100.00
55070;BME280;40967;52.070;8.596;2023-11-21T04:16:32;100120.78;;;8.20;100.00
55070;BME280;40967;52.070;8.596;2023-11-21T04:18:59;100118.88;;;8.20;100.00
55070;BME280;40967;52.070;8.596;2023-11-21T04:21:28;100121.56;;;8.20;100.00
55070;BME280;40967;52.070;8.596;2023-11-21T04:23:56;100127.28;;;8.24;100.00
55070;BME280;40967;52.070;8.596;2023-11-21T04:26:23;100129.16;;;8.23;100.00
55070;BME280;40967;52.070;8.596;2023-11-21T04:28:54;100129.16;;;8.23;100.00
55070;BME280;40967;52.070;8.596;2023-11-21T04:31:22;100136.22;;;8.24;100.00
55070;BME280;40967;52.070;8.596;2023-11-21T04:33:52;100134.06;;;8.26;100.00
55070;BME280;40967;52.070;8.596;2023-11-21T04:36:20;100125.66;;;8.23;100.00
55070;BME280;40967;52.070;8.596;2023-11-21T04:38:47;100136.22;;;8.24;100.00
55070;BME280;40967;52.070;8.596;2023-11-21T04:41:17;100133.50;;;8.24;100.00
55070;BME280;40967;52.070;8.596;2023-11-21T04:43:44;100138.34;;;8.22;100.00
55070;BME280;40967;52.070;8.596;2023-11-21T04:46:11;100138.03;;;8.19;100.00
55070;BME280;40967;52.070;8.596;2023-11-21T04:48:38;100147.78;;;8.15;100.00
55070;BME280;40967;52.070;8.596;2023-11-21T04:51:24;100145.34;;;8.13;100.00
55070;BME280;40967;52.070;8.596;2023-11-21T04:54:06;100149.09;;;8.12;100.00
55070;BME280;40967;52.070;8.596;2023-11-21T04:56:39;100143.44;;;8.14;100.00
55070;BME280;40967;52.070;8.596;2023-11-21T04:59:09;100138.81;;;8.09;100.00
55070;BME280;40967;52.070;8.596;2023-11-21T05:01:40;100146.13;;;8.14;100.00
55070;BME280;40967;52.070;8.596;2023-11-21T05:04:08;100132.88;;;8.12;100.00
55070;BME280;40967;52.070;8.596;2023-11-21T05:06:36;100132.59;;;8.08;100.00
55070;BME280;40967;52.070;8.596;2023-11-21T05:09:06;100142.59;;;8.08;100.00
55070;BME280;40967;52.070;8.596;2023-11-21T05:11:37;100131.78;;;8.08;100.00
55070;BME280;40967;52.070;8.596;2023-11-21T05:14:05;100135.28;;;8.08;100.00
55070;BME280;40967;52.070;8.596;2023-11-21T05:16:32;100142.59;;;8.08;100.00
55070;BME280;40967;52.070;8.596;2023-11-21T05:19:02;100138.53;;;8.05;100.00
55070;BME280;40967;52.070;8.596;2023-11-21T05:21:33;100143.66;;;8.02;100.00
55070;BME280;40967;52.070;8.596;2023-11-21T05:24:06;100138.72;;;7.94;100.00
55070;BME280;40967;52.070;8.596;2023-11-21T05:26:34;100152.50;;;7.97;100.00
55070;BME280;40967;52.070;8.596;2023-11-21T05:29:04;100151.44;;;7.93;100.00
55070;BME280;40967;52.070;8.596;2023-11-21T05:31:37;100160.31;;;7.94;100.00
55070;BME280;40967;52.070;8.596;2023-11-21T05:34:05;100166.28;;;7.96;100.00
55070;BME280;40967;52.070;8.596;2023-11-21T05:36:34;100166.28;;;7.96;100.00
55070;BME280;40967;52.070;8.596;2023-11-21T05:39:07;100166.28;;;7.96;100.00
55070;BME280;40967;52.070;8.596;2023-11-21T05:41:35;100164.13;;;7.93;100.00
55070;BME280;40967;52.070;8.596;2023-11-21T05:44:31;100162.50;;;7.92;100.00
55070;BME280;40967;52.070;8.596;2023-11-21T05:47:06;100167.91;;;7.92;100.00
55070;BME280;40967;52.070;8.596;2023-11-21T05:49:35;100169.53;;;7.93;100.00
55070;BME280;40967;52.070;8.596;2023-11-21T05:52:04;100171.44;;;7.97;100.00
55070;BME280;40967;52.070;8.596;2023-11-21T05:54:34;100174.94;;;7.98;100.00
55070;BME280;40967;52.070;8.596;2023-11-21T05:57:04;100178.22;;;8.00;100.00
55070;BME280;40967;52.070;8.596;2023-11-21T05:59:31;100181.47;;;8.02;100.00
55070;BME280;40967;52.070;8.596;2023-11-21T06:02:14;100187.44;;;8.04;100.00
55070;BME280;40967;52.070;8.596;2023-11-21T06:04:40;100177.69;;;8.03;100.00
55070;BME280;40967;52.070;8.596;2023-11-21T06:07:07;100190.16;;;8.09;100.00
55070;BME280;40967;52.070;8.596;2023-11-21T06:09:38;100196.13;;;8.11;100.00
55070;BME280;40967;52.070;8.596;2023-11-21T06:12:06;100202.59;;;8.10;100.00
55070;BME280;40967;52.070;8.596;2023-11-21T06:14:33;100205.03;;;8.12;100.00
55070;BME280;40967;52.070;8.596;2023-11-21T06:17:03;100207.19;;;8.10;100.00
55070;BME280;40967;52.070;8.596;2023-11-21T06:19:31;100213.38;;;8.10;100.00
55070;BME280;40967;52.070;8.596;2023-11-21T06:21:58;100216.34;;;8.08;100.00
55070;BME280;40967;52.070;8.596;2023-11-21T06:24:27;100222.56;;;8.04;100.00
55070;BME280;40967;52.070;8.596;2023-11-21T06:26:55;100230.13;;;8.07;100.00
55070;BME280;40967;52.070;8.596;2023-11-21T06:29:22;100227.44;;;8.07;100.00
55070;BME280;40967;52.070;8.596;2023-11-21T06:31:52;100235.78;;;8.05;100.00
55070;BME280;40967;52.070;8.596;2023-11-21T06:34:22;100241.19;;;8.05;100.00
55070;BME280;40967;52.070;8.596;2023-11-21T06:36:49;100244.47;;;8.07;100.00
55070;BME280;40967;52.070;8.596;2023-11-21T06:39:18;100246.59;;;8.05;100.00
55070;BME280;40967;52.070;8.596;2023-11-21T06:41:50;100253.88;;;8.05;100.00
55070;BME280;40967;52.070;8.596;2023-11-21T06:44:18;100254.72;;;8.05;100.00
55070;BME280;40967;52.070;8.596;2023-11-21T06:46:52;100259.56;;;8.03;100.00
55070;BME280;40967;52.070;8.596;2023-11-21T06:49:21;100257.66;;;7.99;100.00
55070;BME280;40967;52.070;8.596;2023-11-21T06:51:50;100260.88;;;8.01;100.00
55070;BME280;40967;52.070;8.596;2023-11-21T06:54:20;100262.78;;;8.00;100.00
55070;BME280;40967;52.070;8.596;2023-11-21T06:56:48;100270.88;;;8.00;100.00
55070;BME280;40967;52.070;8.596;2023-11-21T06:59:18;100270.06;;;8.00;100.00
55070;BME280;40967;52.070;8.596;2023-11-21T07:01:44;100280.59;;;8.01;100.00
55070;BME280;40967;52.070;8.596;2023-11-21T07:04:14;100274.16;;;8.02;100.00
55070;BME280;40967;52.070;8.596;2023-11-21T07:06:41;100284.69;;;8.04;100.00
55070;BME280;40967;52.070;8.596;2023-11-21T07:09:09;100278.47;;;8.03;100.00
55070;BME280;40967;52.070;8.596;2023-11-21T07:11:36;100277.91;;;8.01;100.00
55070;BME280;40967;52.070;8.596;2023-11-21T07:14:06;100294.41;;;8.05;100.00
55070;BME280;40967;52.070;8.596;2023-11-21T07:16:35;100287.88;;;8.01;100.00
55070;BME280;40967;52.070;8.596;2023-11-21T07:19:03;100296.84;;;8.06;100.00
55070;BME280;40967;52.070;8.596;2023-11-21T07:21:33;100305.78;;;8.07;100.00
55070;BME280;40967;52.070;8.596;2023-11-21T07:24:01;100305.78;;;8.07;100.00
55070;BME280;40967;52.070;8.596;2023-11-21T07:26:28;100310.63;;;8.05;100.00
55070;BME280;40967;52.070;8.596;2023-11-21T07:28:55;100313.88;;;8.07;100.00
55070;BME280;40967;52.070;8.596;2023-11-21T07:31:28;100312.75;;;8.03;100.00
55070;BME280;40967;52.070;8.596;2023-11-21T07:34:01;100322.78;;;8.02;100.00
55070;BME280;40967;52.070;8.596;2023-11-21T07:36:28;100322.78;;;8.02;100.00
55070;BME280;40967;52.070;8.596;2023-11-21T07:38:57;100331.38;;;7.99;100.00
55070;BME280;40967;52.070;8.596;2023-11-21T07:41:24;100332.16;;;7.95;100.00
55070;BME280;40967;52.070;8.596;2023-11-21T07:43:51;100338.09;;;7.92;100.00
55070;BME280;40967;52.070;8.596;2023-11-21T07:46:19;100332.94;;;7.90;100.00
55070;BME280;40967;52.070;8.596;2023-11-21T07:48:47;100339.69;;;7.93;100.00
55070;BME280;40967;52.070;8.596;2023-11-21T07:51:19;100340.25;;;7.95;100.00
55070;BME280;40967;52.070;8.596;2023-11-21T07:53:47;100334.31;;;7.93;100.00
55070;BME280;40967;52.070;8.596;2023-11-21T07:56:16;100337.25;;;7.91;100.00
55070;BME280;40967;52.070;8.596;2023-11-21T07:58:43;100344.84;;;7.94;100.00
55070;BME280;40967;52.070;8.596;2023-11-21T08:01:11;100345.66;;;7.95;100.00
55070;BME280;40967;52.070;8.596;2023-11-21T08:03:38;100346.22;;;7.97;100.00
55070;BME280;40967;52.070;8.596;2023-11-21T08:06:07;100351.13;;;8.00;100.00
55070;BME280;40967;52.070;8.596;2023-11-21T08:08:38;100351.94;;;8.00;100.00
55070;BME280;40967;52.070;8.596;2023-11-21T08:11:08;100350.84;;;8.01;100.00
55070;BME280;40967;52.070;8.596;2023-11-21T08:13:36;100358.13;;;8.01;100.00
55070;BME280;40967;52.070;8.596;2023-11-21T08:16:04;100354.94;;;8.04;100.00
55070;BME280;40967;52.070;8.596;2023-11-21T08:18:38;100360.66;;;8.07;100.00
55070;BME280;40967;52.070;8.596;2023-11-21T08:21:05;100353.09;;;8.10;100.00
55070;BME280;40967;52.070;8.596;2023-11-21T08:23:33;100373.41;;;8.17;100.00
55070;BME280;40967;52.070;8.596;2023-11-21T08:26:01;100369.13;;;8.21;100.00
55070;BME280;40967;52.070;8.596;2023-11-21T08:28:29;100371.09;;;8.26;100.00
55070;BME280;40967;52.070;8.596;2023-11-21T08:30:57;100378.69;;;8.29;100.00
55070;BME280;40967;52.070;8.596;2023-11-21T08:33:24;100388.16;;;8.31;100.00
55070;BME280;40967;52.070;8.596;2023-11-21T08:35:51;100389.56;;;8.34;100.00
55070;BME280;40967;52.070;8.596;2023-11-21T08:38:20;100390.34;;;8.34;100.00
55070;BME280;40967;52.070;8.596;2023-11-21T08:40:48;100399.84;;;8.37;100.00
55070;BME280;40967;52.070;8.596;2023-11-21T08:43:16;100403.09;;;8.39;100.00
55070;BME280;40967;52.070;8.596;2023-11-21T08:45:45;100410.97;;;8.40;100.00
55070;BME280;40967;52.070;8.596;2023-11-21T08:48:13;100414.22;;;8.42;100.00
55070;BME280;40967;52.070;8.596;2023-11-21T08:50:40;100420.72;;;8.46;100.00
55070;BME280;40967;52.070;8.596;2023-11-21T08:53:09;100419.09;;;8.45;100.00
55070;BME280;40967;52.070;8.596;2023-11-21T08:55:36;100419.16;;;8.50;100.00
55070;BME280;40967;52.070;8.596;2023-11-21T08:58:03;100422.94;;;8.49;100.00
55070;BME280;40967;52.070;8.596;2023-11-21T09:00:36;100428.38;;;8.54;100.00
55070;BME280;40967;52.070;8.596;2023-11-21T09:03:04;100432.13;;;8.53;100.00
55070;BME280;40967;52.070;8.596;2023-11-21T09:05:38;100442.97;;;8.53;100.00
55070;BME280;40967;52.070;8.596;2023-11-21T09:08:06;100438.06;;;8.50;100.00
55070;BME280;40967;52.070;8.596;2023-11-21T09:10:36;100445.13;;;8.51;100.00
55070;BME280;40967;52.070;8.596;2023-11-21T09:13:05;100442.66;;;8.50;100.00
55070;BME280;40967;52.070;8.596;2023-11-21T09:15:37;100450.00;;;8.54;100.00
55070;BME280;40967;52.070;8.596;2023-11-21T09:18:04;100447.06;;;8.56;100.00
55070;BME280;40967;52.070;8.596;2023-11-21T09:20:31;100439.72;;;8.51;100.00
55070;BME280;40967;52.070;8.596;2023-11-21T09:22:58;100455.47;;;8.59;100.00
55070;BME280;40967;52.070;8.596;2023-11-21T09:25:25;100458.44;;;8.58;100.00
55070;BME280;40967;52.070;8.596;2023-11-21T09:27:54;100467.91;;;8.60;100.00
55070;BME280;40967;52.070;8.596;2023-11-21T09:30:23;100477.09;;;8.59;100.00
55070;BME280;40967;52.070;8.596;2023-11-21T09:32:54;100473.31;;;8.60;100.00
55070;BME280;40967;52.070;8.596;2023-11-21T09:35:23;100476.00;;;8.60;100.00
55070;BME280;40967;52.070;8.596;2023-11-21T09:37:51;100483.06;;;8.61;100.00
55070;BME280;40967;52.070;8.596;2023-11-21T09:40:21;100483.88;;;8.62;100.00
55070;BME280;40967;52.070;8.596;2023-11-21T09:42:53;100484.13;;;8.60;100.00
55070;BME280;40967;52.070;8.596;2023-11-21T09:45:25;100493.88;;;8.61;100.00
55070;BME280;40967;52.070;8.596;2023-11-21T09:48:11;100490.06;;;8.57;100.00
55070;BME280;40967;52.070;8.596;2023-11-21T09:50:41;100497.59;;;8.55;100.00
55070;BME280;40967;52.070;8.596;2023-11-21T09:53:16;100511.13;;;8.55;100.00
55070;BME280;40967;52.070;8.596;2023-11-21T09:55:47;100505.97;;;8.54;100.00
55070;BME280;40967;52.070;8.596;2023-11-21T09:58:22;100514.66;;;8.56;100.00
55070;BME280;40967;52.070;8.596;2023-11-21T10:00:53;100510.03;;;8.51;100.00
55070;BME280;40967;52.070;8.596;2023-11-21T10:03:23;100516.75;;;8.49;100.00
55070;BME280;40967;52.070;8.596;2023-11-21T10:05:51;100518.63;;;8.48;100.00
55070;BME280;40967;52.070;8.596;2023-11-21T10:08:22;100515.66;;;8.50;100.00
55070;BME280;40967;52.070;8.596;2023-11-21T10:10:54;100522.97;;;8.49;100.00
55070;BME280;40967;52.070;8.596;2023-11-21T10:13:27;100522.16;;;8.49;100.00
55070;BME280;40967;52.070;8.596;2023-11-21T10:15:56;100533.78;;;8.49;100.00
55070;BME280;40967;52.070;8.596;2023-11-21T10:18:29;100536.50;;;8.49;100.00
55070;BME280;40967;52.070;8.596;2023-11-21T10:20:56;100534.28;;;8.46;100.00
55070;BME280;40967;52.070;8.596;2023-11-21T10:23:23;100525.06;;;8.42;100.00
55070;BME280;40967;52.070;8.596;2023-11-21T10:25:52;100543.47;;;8.45;100.00
55070;BME280;40967;52.070;8.596;2023-11-21T10:28:24;100553.22;;;8.46;100.00
55070;BME280;40967;52.070;8.596;2023-11-21T10:30:50;100537.50;;;8.43;100.00
55070;BME280;40967;52.070;8.596;2023-11-21T10:33:28;100547.56;;;8.48;100.00
55070;BME280;40967;52.070;8.596;2023-11-21T10:35:55;100546.75;;;8.47;100.00
55070;BME280;40967;52.070;8.596;2023-11-21T10:38:22;100544.56;;;8.44;100.00
55070;BME280;40967;52.070;8.596;2023-11-21T10:40:52;100551.34;;;8.47;100.00
55070;BME280;40967;52.070;8.596;2023-11-21T10:43:24;100547.00;;;8.46;100.00
55070;BME280;40967;52.070;8.596;2023-11-21T10:45:51;100558.09;;;8.44;100.00
55070;BME280;40967;52.070;8.596;2023-11-21T10:48:18;100554.28;;;8.45;100.00
55070;BME280;40967;52.070;8.596;2023-11-21T10:50:48;100558.09;;;8.44;100.00
55070;BME280;40967;52.070;8.596;2023-11-21T10:53:15;100563.50;;;8.44;100.00
55070;BME280;40967;52.070;8.596;2023-11-21T10:55:42;100562.41;;;8.45;100.00
55070;BME280;40967;52.070;8.596;2023-11-21T10:58:10;100563.50;;;8.44;100.00
55070;BME280;40967;52.070;8.596;2023-11-21T11:00:45;100568.34;;;8.42;100.00
55070;BME280;40967;52.070;8.596;2023-11-21T11:03:12;100573.75;;;8.42;100.00
55070;BME280;40967;52.070;8.596;2023-11-21T11:05:40;100581.03;;;8.42;100.00
55070;BME280;40967;52.070;8.596;2023-11-21T11:08:19;100564.94;;;8.30;100.00
55070;BME280;40967;52.070;8.596;2023-11-21T11:10:51;100593.16;;;8.39;100.00
55070;BME280;40967;52.070;8.596;2023-11-21T11:13:19;100592.09;;;8.40;100.00
55070;BME280;40967;52.070;8.596;2023-11-21T11:15:47;100605.31;;;8.37;100.00
55070;BME280;40967;52.070;8.596;2023-11-21T11:18:15;100609.81;;;8.31;100.00
55070;BME280;40967;52.070;8.596;2023-11-21T11:20:43;100612.53;;;8.31;100.00
55070;BME280;40967;52.070;8.596;2023-11-21T11:23:32;100613.56;;;8.25;100.00
55070;BME280;40967;52.070;8.596;2023-11-21T11:26:12;100617.78;;;8.21;100.00
55070;BME280;40967;52.070;8.596;2023-11-21T11:28:47;100617.47;;;8.18;100.00
55070;BME280;40967;52.070;8.596;2023-11-21T11:31:44;100625.00;;;8.16;100.00
55070;BME280;40967;52.070;8.596;2023-11-21T11:34:19;100627.13;;;8.14;100.00
55070;BME280;40967;52.070;8.596;2023-11-21T11:36:54;100618.78;;;8.15;100.00
55070;BME280;40967;52.070;8.596;2023-11-21T11:39:34;100618.78;;;8.15;100.00
55070;BME280;40967;52.070;8.596;2023-11-21T11:42:03;100620.38;;;8.11;100.00
55070;BME280;40967;52.070;8.596;2023-11-21T11:44:49;100628.94;;;8.08;100.00
55070;BME280;40967;52.070;8.596;2023-11-21T11:47:25;100636.25;;;8.07;100.00
55070;BME280;40967;52.070;8.596;2023-11-21T11:50:07;100631.66;;;8.08;100.00
55070;BME280;40967;52.070;8.596;2023-11-21T11:52:44;100638.13;;;8.07;100.00
55070;BME280;40967;52.070;8.596;2023-11-21T11:55:20;100635.19;;;8.08;100.00
55070;BME280;40967;52.070;8.596;2023-11-21T11:57:48;100636.00;;;8.09;100.00
55070;BME280;40967;52.070;8.596;2023-11-21T12:00:17;100629.78;;;8.08;100.00
55070;BME280;40967;52.070;8.596;2023-11-21T12:02:51;100632.72;;;8.07;100.00
55070;BME280;40967;52.070;8.596;2023-11-21T12:05:23;100644.06;;;8.04;100.00
55070;BME280;40967;52.070;8.596;2023-11-21T12:07:54;100650.50;;;8.03;100.00
55070;BME280;40967;52.070;8.596;2023-11-21T12:10:26;100655.00;;;7.97;100.00
55070;BME280;40967;52.070;8.596;2023-11-21T12:12:55;100660.19;;;7.99;100.00
55070;BME280;40967;52.070;8.596;2023-11-21T12:15:26;100664.44;;;7.95;100.00
55070;BME280;40967;52.070;8.596;2023-11-21T12:17:54;100673.13;;;7.97;100.00
55070;BME280;40967;52.070;8.596;2023-11-21T12:20:23;100678.78;;;7.95;100.00
55070;BME280;40967;52.070;8.596;2023-11-21T12:22:52;100681.41;;;7.90;100.00
55070;BME280;40967;52.070;8.596;2023-11-21T12:25:21;100678.63;;;7.85;100.00
55070;BME280;40967;52.070;8.596;2023-11-21T12:27:54;100693.84;;;7.91;100.00
55070;BME280;40967;52.070;8.596;2023-11-21T12:30:23;100701.13;;;7.91;100.00
55070;BME280;40967;52.070;8.596;2023-11-21T12:32:52;100698.41;;;7.91;100.00
55070;BME280;40967;52.070;8.596;2023-11-21T12:35:22;100697.63;;;7.90;100.00
55070;BME280;40967;52.070;8.596;2023-11-21T12:37:51;100695.41;;;7.87;100.00
55070;BME280;40967;52.070;8.596;2023-11-21T12:40:23;100688.63;;;7.85;100.00
55070;BME280;40967;52.070;8.596;2023-11-21T12:43:07;100704.84;;;7.85;100.00
55070;BME280;40967;52.070;8.596;2023-11-21T12:45:45;100704.50;;;7.81;100.00
55070;BME280;40967;52.070;8.596;2023-11-21T12:48:13;100709.91;;;7.81;100.00
55070;BME280;40967;52.070;8.596;2023-11-21T12:50:44;100706.13;;;7.82;100.00
55070;BME280;40967;52.070;8.596;2023-11-21T12:53:14;100711.03;;;7.85;100.00
55070;BME280;40967;52.070;8.596;2023-11-21T12:55:44;100715.13;;;7.88;100.00
55070;BME280;40967;52.070;8.596;2023-11-21T12:58:20;100710.56;;;7.88;100.00
55070;BME280;40967;52.070;8.596;2023-11-21T13:00:49;100703.81;;;7.91;100.00
55070;BME280;40967;52.070;8.596;2023-11-21T13:03:17;100711.94;;;7.91;100.00
55070;BME280;40967;52.070;8.596;2023-11-21T13:05:53;100700.47;;;7.84;100.00